Time;durP1;ratioP1;P1;durP2;ratioP2;P2;SDS_P1;SDS_P2;PMS_P1;PMS_P2;Temp;Humidity;BMP_temperature;BMP_pressure;BME280_temperature;BME280_humidity;BME280_pressure;Samples;Min_cycle;Max_cycle;Signal;HPM_P1;HPM_P2
2021/05/28 00:03:15;;;;;;;5.55;2.53;;;;;;;;;;10267477;28;20131;-71
2021/05/28 00:08:11;;;;;;;4.75;2.63;;;;;;;;;;10273568;28;20555;-72
2021/05/28 00:13:08;;;;;;;6.57;2.47;;;;;;;;;;10263024;28;20144;-74
2021/05/28 00:18:04;;;;;;;7.18;2.80;;;;;;;;;;10256096;28;20471;-74
2021/05/28 00:23:00;;;;;;;8.27;3.42;;;;;;;;;;10267084;28;20682;-73
2021/05/28 00:27:57;;;;;;;8.43;4.03;;;;;;;;;;10270351;28;20099;-70
2021/05/28 00:32:53;;;;;;;8.60;3.95;;;;;;;;;;10278399;28;20041;-74
2021/05/28 00:37:50;;;;;;;7.10;3.38;;;;;;;;;;10299317;28;20090;-73
2021/05/28 00:42:47;;;;;;;6.93;3.70;;;;;;;;;;10299934;28;20052;-73
2021/05/28 00:48:01;;;;;;;13.02;4.18;;;;;;;;;;10271570;28;20505;-72
2021/05/28 00:52:59;;;;;;;9.20;3.92;;;;;;;;;;10268955;28;20045;-72
2021/05/28 00:57:56;;;;;;;7.93;4.55;;;;;;;;;;10258481;28;20049;-70
2021/05/28 01:02:52;;;;;;;12.65;4.80;;;;;;;;;;10269074;28;20056;-70
2021/05/28 01:07:49;;;;;;;9.57;4.82;;;;;;;;;;10263068;28;20077;-75
2021/05/28 01:12:45;;;;;;;11.77;5.30;;;;;;;;;;10274202;28;20083;-71
2021/05/28 01:17:42;;;;;;;19.13;6.85;;;;;;;;;;10267543;28;20127;-69
2021/05/28 01:22:38;;;;;;;17.30;7.05;;;;;;;;;;10269923;28;20041;-71
2021/05/28 01:27:35;;;;;;;14.05;8.05;;;;;;;;;;10273541;28;20067;-71
2021/05/28 01:32:32;;;;;;;16.30;8.38;;;;;;;;;;10274333;28;20048;-71
2021/05/28 01:37:28;;;;;;;12.43;7.70;;;;;;;;;;10272281;28;20079;-69
2021/05/28 01:42:24;;;;;;;12.65;7.18;;;;;;;;;;10274779;28;20049;-68
2021/05/28 01:47:21;;;;;;;19.75;7.50;;;;;;;;;;10267246;28;20045;-69
2021/05/28 01:52:17;;;;;;;12.13;7.00;;;;;;;;;;10265867;28;21822;-69
2021/05/28 01:57:14;;;;;;;17.77;6.55;;;;;;;;;;10275146;28;20502;-68
2021/05/28 02:02:10;;;;;;;10.60;6.38;;;;;;;;;;10259617;28;20482;-69
2021/05/28 02:07:07;;;;;;;13.30;6.40;;;;;;;;;;10278490;28;20088;-71
2021/05/28 02:12:04;;;;;;;15.15;6.32;;;;;;;;;;10282302;28;20106;-71
2021/05/28 02:17:00;;;;;;;12.25;6.10;;;;;;;;;;10280687;28;20118;-73
2021/05/28 02:21:56;;;;;;;14.82;5.68;;;;;;;;;;10273984;28;20045;-68
2021/05/28 02:26:56;;;;;;;13.85;6.43;;;;;;;;;;10268406;28;20069;-73
2021/05/28 02:31:52;;;;;;;11.45;6.30;;;;;;;;;;10269524;28;20036;-71
2021/05/28 02:36:48;;;;;;;11.00;6.25;;;;;;;;;;10263055;28;20104;-68
2021/05/28 02:41:45;;;;;;;11.95;6.30;;;;;;;;;;10262200;28;20068;-68
2021/05/28 02:46:41;;;;;;;12.35;6.35;;;;;;;;;;10273937;28;20037;-69
2021/05/28 02:51:37;;;;;;;17.42;6.75;;;;;;;;;;10268782;28;20132;-68
2021/05/28 02:56:33;;;;;;;14.75;6.38;;;;;;;;;;10274763;28;20123;-68
2021/05/28 03:01:30;;;;;;;14.77;8.35;;;;;;;;;;10270919;28;20045;-72
2021/05/28 03:06:26;;;;;;;14.43;8.32;;;;;;;;;;10261292;28;20078;-72
2021/05/28 03:11:23;;;;;;;19.90;8.75;;;;;;;;;;10268947;28;20645;-73
2021/05/28 03:16:19;;;;;;;18.50;8.43;;;;;;;;;;10271580;28;20045;-72
2021/05/28 03:21:21;;;;;;;18.85;8.38;;;;;;;;;;10268739;28;20530;-72
2021/05/28 03:26:18;;;;;;;15.35;7.78;;;;;;;;;;10272045;28;20053;-68
2021/05/28 03:31:15;;;;;;;14.43;7.25;;;;;;;;;;10278890;28;20477;-68
2021/05/28 03:36:13;;;;;;;11.65;6.03;;;;;;;;;;10265209;28;20698;-73
2021/05/28 03:41:10;;;;;;;11.85;6.47;;;;;;;;;;10261263;28;20132;-71
2021/05/28 03:46:06;;;;;;;16.45;7.55;;;;;;;;;;10265477;28;20160;-68
2021/05/28 03:51:03;;;;;;;12.20;6.07;;;;;;;;;;10273311;28;20079;-68
2021/05/28 03:55:59;;;;;;;11.98;4.93;;;;;;;;;;10263806;28;20065;-68
2021/05/28 04:00:56;;;;;;;9.55;4.85;;;;;;;;;;10253403;28;20052;-69
2021/05/28 04:05:52;;;;;;;17.05;5.95;;;;;;;;;;10253401;28;20049;-71
2021/05/28 04:10:48;;;;;;;12.02;5.75;;;;;;;;;;10253109;28;20053;-71
2021/05/28 04:15:45;;;;;;;10.07;5.28;;;;;;;;;;10253796;28;20045;-69
2021/05/28 04:20:44;;;;;;;12.80;5.20;;;;;;;;;;10233757;28;20077;-70
2021/05/28 04:25:40;;;;;;;9.35;5.07;;;;;;;;;;10259900;28;20037;-68
2021/05/28 04:30:36;;;;;;;11.50;5.70;;;;;;;;;;10254810;28;20091;-68
2021/05/28 04:35:34;;;;;;;13.25;6.22;;;;;;;;;;10260634;28;20423;-70
2021/05/28 04:40:31;;;;;;;14.05;6.63;;;;;;;;;;10256116;28;20520;-71
2021/05/28 04:45:27;;;;;;;11.63;5.97;;;;;;;;;;10267048;28;20048;-70
2021/05/28 04:50:42;;;;;;;12.55;7.70;;;;;;;;;;10260735;28;20049;-71
2021/05/28 04:55:38;;;;;;;;;;;;;;;;;;10278589;28;20071;-71
2021/05/28 05:00:34;;;;;;;11.80;5.78;;;;;;;;;;10269499;28;19952;-70
2021/05/28 05:05:31;;;;;;;13.00;5.55;;;;;;;;;;10267672;28;20041;-70
2021/05/28 05:10:27;;;;;;;12.50;6.20;;;;;;;;;;10269775;28;20080;-70
2021/05/28 05:15:23;;;;;;;11.45;5.90;;;;;;;;;;10274129;28;20127;-69
2021/05/28 05:20:20;;;;;;;15.90;6.53;;;;;;;;;;10264916;28;20048;-71
2021/05/28 05:25:16;;;;;;;13.90;7.03;;;;;;;;;;10241463;28;20053;-69
2021/05/28 05:30:13;;;;;;;15.35;9.05;;;;;;;;;;10258026;28;20155;-68
2021/05/28 05:35:10;;;;;;;16.58;10.23;;;;;;;;;;10250802;28;20687;-69
2021/05/28 05:40:07;;;;;;;13.95;9.38;;;;;;;;;;10261690;28;20049;-70
2021/05/28 05:45:04;;;;;;;16.58;9.20;;;;;;;;;;10255160;28;20049;-68
2021/05/28 05:50:00;;;;;;;16.02;8.63;;;;;;;;;;10254563;28;20384;-69
2021/05/28 05:54:57;;;;;;;14.50;8.20;;;;;;;;;;10250776;28;20076;-70
2021/05/28 05:59:53;;;;;;;9.18;6.65;;;;;;;;;;10258046;28;20116;-70
2021/05/28 06:04:49;;;;;;;15.80;8.43;;;;;;;;;;10255902;28;20099;-71
2021/05/28 06:09:45;;;;;;;11.95;7.53;;;;;;;;;;10252395;28;20128;-69
2021/05/28 06:14:42;;;;;;;13.32;7.32;;;;;;;;;;10262770;28;20128;-71
2021/05/28 06:19:38;;;;;;;10.80;7.30;;;;;;;;;;10264335;28;20871;-70
2021/05/28 06:24:34;;;;;;;11.68;6.55;;;;;;;;;;10258618;28;20560;-68
2021/05/28 06:29:31;;;;;;;11.23;6.60;;;;;;;;;;10258193;28;20131;-69
2021/05/28 06:34:31;;;;;;;12.70;5.80;;;;;;;;;;10257248;28;20041;-70
2021/05/28 06:39:28;;;;;;;12.00;5.35;;;;;;;;;;10257855;28;20048;-68
2021/05/28 06:44:25;;;;;;;10.48;5.10;;;;;;;;;;10258916;28;20087;-68
2021/05/28 06:49:22;;;;;;;12.63;6.32;;;;;;;;;;10255360;28;20076;-70
2021/05/28 06:54:18;;;;;;;11.85;6.05;;;;;;;;;;10257856;28;20045;-70
2021/05/28 06:59:14;;;;;;;13.90;6.30;;;;;;;;;;10248943;28;20611;-64
2021/05/28 07:04:11;;;;;;;13.85;6.43;;;;;;;;;;10244036;28;20080;-64
2021/05/28 07:09:07;;;;;;;13.38;6.65;;;;;;;;;;10257739;28;20048;-64
2021/05/28 07:14:04;;;;;;;11.63;6.78;;;;;;;;;;10249513;28;20052;-64
2021/05/28 07:19:00;;;;;;;18.70;8.48;;;;;;;;;;10248149;28;20551;-64
2021/05/28 07:23:57;;;;;;;16.75;9.45;;;;;;;;;;10244875;28;20478;-64
2021/05/28 07:28:53;;;;;;;17.48;10.40;;;;;;;;;;10248142;28;20045;-63
2021/05/28 07:33:49;;;;;;;18.00;9.45;;;;;;;;;;10257627;28;20839;-63
2021/05/28 07:38:46;;;;;;;17.80;9.23;;;;;;;;;;10247818;28;20115;-64
2021/05/28 07:43:42;;;;;;;16.05;9.40;;;;;;;;;;10257694;28;20517;-63
2021/05/28 07:48:39;;;;;;;20.75;9.15;;;;;;;;;;10255498;28;20098;-63
2021/05/28 07:53:35;;;;;;;20.70;9.20;;;;;;;;;;10242913;28;20048;-63
2021/05/28 07:58:33;;;;;;;17.52;9.40;;;;;;;;;;10246870;28;20045;-63
2021/05/28 08:03:29;;;;;;;15.70;9.40;;;;;;;;;;10252451;28;20113;-63
2021/05/28 08:08:28;;;;;;;13.15;7.05;;;;;;;;;;10252094;28;20102;-64
2021/05/28 08:13:25;;;;;;;16.02;7.68;;;;;;;;;;10246965;28;20076;-63
2021/05/28 08:18:21;;;;;;;14.55;6.70;;;;;;;;;;10251178;28;20099;-63
2021/05/28 08:23:17;;;;;;;13.02;6.30;;;;;;;;;;10251589;28;20558;-64
2021/05/28 08:28:14;;;;;;;13.23;7.18;;;;;;;;;;10259091;28;20091;-63
2021/05/28 08:33:12;;;;;;;15.60;7.90;;;;;;;;;;10269419;28;20135;-64
2021/05/28 08:38:08;;;;;;;12.32;6.85;;;;;;;;;;10262866;28;20514;-64
2021/05/28 08:43:05;;;;;;;16.02;6.72;;;;;;;;;;10268193;28;20139;-63
2021/05/28 08:48:06;;;;;;;16.23;7.15;;;;;;;;;;10270396;28;20479;-64
2021/05/28 08:53:03;;;;;;;12.18;6.32;;;;;;;;;;10252691;28;20037;-64
2021/05/28 08:58:11;;;;;;;14.52;7.40;;;;;;;;;;10257459;28;21073;-64
2021/05/28 09:03:34;;;;;;;14.77;7.07;;;;;;;;;;10253162;28;20124;-63
2021/05/28 09:08:34;;;;;;;14.88;7.22;;;;;;;;;;10257538;28;20087;-65
2021/05/28 09:13:31;;;;;;;12.70;7.00;;;;;;;;;;10262453;28;20045;-63
2021/05/28 09:18:40;;;;;;;15.05;8.50;;;;;;;;;;10267285;28;20047;-64
2021/05/28 09:23:36;;;;;;;14.82;7.93;;;;;;;;;;10259417;28;20044;-64
2021/05/28 09:28:43;;;;;;;17.02;8.95;;;;;;;;;;10252783;28;20059;-64
2021/05/28 09:33:40;;;;;;;15.35;8.10;;;;;;;;;;10266642;28;20088;-63
2021/05/28 09:38:37;;;;;;;13.98;8.23;;;;;;;;;;10256496;28;20079;-64
2021/05/28 09:43:34;;;;;;;14.80;7.15;;;;;;;;;;10259344;28;20079;-64
2021/05/28 09:48:31;;;;;;;12.15;7.10;;;;;;;;;;10263115;28;20044;-63
2021/05/28 09:53:27;;;;;;;11.02;6.35;;;;;;;;;;10254291;28;20041;-63
2021/05/28 09:58:23;;;;;;;13.10;7.00;;;;;;;;;;10250872;28;20133;-64
2021/05/28 10:03:22;;;;;;;14.40;6.40;;;;;;;;;;10246181;28;20076;-64
2021/05/28 10:08:19;;;;;;;12.35;6.65;;;;;;;;;;10251756;28;20153;-65
2021/05/28 10:13:17;;;;;;;16.52;7.28;;;;;;;;;;10263156;28;20132;-65
2021/05/28 10:18:14;;;;;;;20.08;7.05;;;;;;;;;;10243618;28;20087;-64
2021/05/28 10:23:11;;;;;;;12.45;6.60;;;;;;;;;;10250405;28;20061;-65
2021/05/28 10:28:14;;;;;;;10.27;6.05;;;;;;;;;;10260215;28;20118;-65
2021/05/28 10:33:18;;;;;;;15.10;6.23;;;;;;;;;;10254880;28;20570;-63
2021/05/28 10:38:29;;;;;;;14.30;6.60;;;;;;;;;;10255078;28;20080;-65
2021/05/28 10:43:27;;;;;;;19.48;6.75;;;;;;;;;;10254867;28;20156;-63
2021/05/28 10:48:39;;;;;;;13.00;6.88;;;;;;;;;;10251434;28;20088;-64
2021/05/28 10:53:36;;;;;;;11.70;6.38;;;;;;;;;;10247449;28;20037;-64
2021/05/28 10:58:51;;;;;;;12.90;5.63;;;;;;;;;;10245961;28;20038;-64
2021/05/28 11:03:47;;;;;;;14.95;6.50;;;;;;;;;;10238127;28;20128;-64
2021/05/28 11:08:44;;;;;;;16.17;5.32;;;;;;;;;;10243633;28;20107;-64
2021/05/28 11:13:54;;;;;;;16.40;6.00;;;;;;;;;;10260139;28;20049;-64
2021/05/28 11:18:51;;;;;;;12.00;5.35;;;;;;;;;;10251065;28;20120;-64
2021/05/28 11:23:51;;;;;;;13.95;5.43;;;;;;;;;;10244409;28;20060;-63
2021/05/28 11:28:54;;;;;;;14.68;6.03;;;;;;;;;;10247347;28;20139;-64
2021/05/28 11:33:55;;;;;;;17.90;6.38;;;;;;;;;;10252690;28;20057;-64
2021/05/28 11:38:55;;;;;;;15.07;6.30;;;;;;;;;;10251134;28;20091;-63
2021/05/28 11:43:52;;;;;;;15.70;5.80;;;;;;;;;;10252720;28;20041;-64
2021/05/28 11:48:49;;;;;;;16.73;6.90;;;;;;;;;;10253526;28;20558;-65
2021/05/28 11:53:45;;;;;;;12.52;6.13;;;;;;;;;;10257689;28;20135;-64
2021/05/28 11:58:49;;;;;;;13.18;5.03;;;;;;;;;;10255811;28;20041;-64
2021/05/28 12:03:45;;;;;;;13.57;5.13;;;;;;;;;;10246834;28;20403;-64
2021/05/28 12:08:42;;;;;;;12.45;5.40;;;;;;;;;;10251107;28;20053;-63
2021/05/28 12:13:39;;;;;;;14.02;5.10;;;;;;;;;;10249743;28;20037;-65
2021/05/28 12:18:36;;;;;;;12.63;5.03;;;;;;;;;;10253686;28;20033;-63
2021/05/28 12:23:34;;;;;;;12.07;4.80;;;;;;;;;;10260520;28;20090;-65
2021/05/28 12:28:35;;;;;;;14.15;5.50;;;;;;;;;;10259097;28;20049;-64
2021/05/28 12:33:33;;;;;;;10.48;4.78;;;;;;;;;;10247612;28;20041;-64
2021/05/28 12:38:37;;;;;;;11.60;4.70;;;;;;;;;;10256068;28;20148;-64
2021/05/28 12:43:34;;;;;;;10.43;4.18;;;;;;;;;;10250341;28;20141;-63
2021/05/28 12:48:44;;;;;;;10.27;4.28;;;;;;;;;;10250468;28;20696;-64
2021/05/28 12:53:42;;;;;;;14.07;5.18;;;;;;;;;;10242683;28;20044;-63
2021/05/28 12:58:40;;;;;;;12.25;4.32;;;;;;;;;;10249480;28;20068;-63
2021/05/28 13:03:56;;;;;;;10.82;4.43;;;;;;;;;;10257635;28;20072;-65
2021/05/28 13:09:13;;;;;;;19.30;5.70;;;;;;;;;;10261294;28;20095;-64
2021/05/28 13:14:16;;;;;;;12.98;5.03;;;;;;;;;;10251748;28;20494;-64
2021/05/28 13:19:13;;;;;;;9.80;4.55;;;;;;;;;;10261362;28;20071;-63
2021/05/28 13:24:29;;;;;;;11.60;4.10;;;;;;;;;;10263071;28;20071;-64
2021/05/28 13:29:25;;;;;;;15.50;4.25;;;;;;;;;;10258853;28;20072;-67
2021/05/28 13:34:22;;;;;;;14.18;4.30;;;;;;;;;;10254906;28;20049;-68
2021/05/28 13:39:18;;;;;;;14.68;5.05;;;;;;;;;;10245562;28;20068;-71
2021/05/28 13:44:14;;;;;;;10.18;3.85;;;;;;;;;;10266529;28;20403;-69
2021/05/28 13:49:11;;;;;;;8.38;4.07;;;;;;;;;;10270366;28;20045;-68
2021/05/28 13:54:07;;;;;;;15.90;4.88;;;;;;;;;;10261854;28;20049;-68
2021/05/28 13:59:04;;;;;;;10.40;4.35;;;;;;;;;;10265585;28;20045;-68
2021/05/28 14:04:00;;;;;;;11.00;4.30;;;;;;;;;;10257801;28;20591;-68
2021/05/28 14:08:56;;;;;;;16.13;4.68;;;;;;;;;;10265540;28;20057;-69
2021/05/28 14:13:53;;;;;;;13.27;4.15;;;;;;;;;;10269970;28;20419;-69
2021/05/28 14:18:49;;;;;;;9.73;3.88;;;;;;;;;;10268574;28;20095;-69
2021/05/28 14:23:46;;;;;;;12.43;5.18;;;;;;;;;;10269806;28;20094;-68
2021/05/28 14:28:42;;;;;;;10.27;3.65;;;;;;;;;;10268861;28;20057;-67
2021/05/28 14:33:54;;;;;;;9.35;3.60;;;;;;;;;;10276372;28;20464;-68
2021/05/28 14:38:51;;;;;;;12.68;4.80;;;;;;;;;;10266110;28;20046;-69
2021/05/28 14:43:48;;;;;;;12.35;4.22;;;;;;;;;;10270255;28;20079;-70
2021/05/28 14:48:44;;;;;;;14.60;4.38;;;;;;;;;;10270177;28;20128;-68
2021/05/28 14:53:41;;;;;;;11.10;3.45;;;;;;;;;;10262931;28;20124;-68
2021/05/28 14:58:37;;;;;;;12.30;4.13;;;;;;;;;;10268161;28;20483;-69
2021/05/28 15:03:34;;;;;;;15.95;4.13;;;;;;;;;;10263945;28;20053;-68
2021/05/28 15:08:31;;;;;;;11.50;3.15;;;;;;;;;;10268624;28;20103;-69
2021/05/28 15:13:28;;;;;;;9.98;3.53;;;;;;;;;;10260804;28;20132;-69
2021/05/28 15:18:25;;;;;;;9.82;3.38;;;;;;;;;;10266971;28;20801;-69
2021/05/28 15:23:22;;;;;;;10.70;4.20;;;;;;;;;;10266820;28;20497;-70
2021/05/28 15:28:19;;;;;;;10.88;4.80;;;;;;;;;;10271043;28;20504;-67
2021/05/28 15:33:16;;;;;;;10.70;3.45;;;;;;;;;;10265009;28;20045;-70
2021/05/28 15:38:13;;;;;;;12.05;4.05;;;;;;;;;;10265307;28;20044;-69
2021/05/28 15:43:09;;;;;;;10.80;4.93;;;;;;;;;;10263548;28;20053;-68
2021/05/28 15:48:06;;;;;;;10.48;4.88;;;;;;;;;;10254006;28;20079;-69
2021/05/28 15:53:07;;;;;;;16.75;4.63;;;;;;;;;;10256133;28;20045;-70
2021/05/28 15:58:03;;;;;;;12.20;4.63;;;;;;;;;;10252945;28;20076;-70
2021/05/28 16:03:03;;;;;;;11.80;5.05;;;;;;;;;;10257927;28;20122;-70
2021/05/28 16:08:04;;;;;;;14.38;5.15;;;;;;;;;;10261774;28;20136;-68
2021/05/28 16:13:00;;;;;;;11.98;5.07;;;;;;;;;;10255666;28;20041;-69
2021/05/28 16:17:57;;;;;;;9.90;5.60;;;;;;;;;;10254615;28;20041;-69
2021/05/28 16:22:53;;;;;;;12.35;4.95;;;;;;;;;;10259488;28;20045;-71
2021/05/28 16:27:53;;;;;;;13.02;5.78;;;;;;;;;;10249778;28;20128;-68
2021/05/28 16:32:50;;;;;;;10.40;4.70;;;;;;;;;;10254783;28;20565;-69
2021/05/28 16:37:46;;;;;;;12.30;5.32;;;;;;;;;;10257571;28;20120;-66
2021/05/28 16:42:43;;;;;;;10.73;4.45;;;;;;;;;;10250030;28;20079;-67
2021/05/28 16:47:40;;;;;;;11.43;5.25;;;;;;;;;;10258240;28;20045;-68
2021/05/28 16:52:36;;;;;;;12.77;4.82;;;;;;;;;;10259966;28;20087;-68
2021/05/28 16:57:33;;;;;;;15.85;5.43;;;;;;;;;;10259698;28;20137;-68
2021/05/28 17:02:29;;;;;;;10.05;4.28;;;;;;;;;;10269243;28;20434;-67
2021/05/28 17:07:26;;;;;;;14.48;6.65;;;;;;;;;;10255914;28;20127;-68
2021/05/28 17:12:22;;;;;;;15.48;5.65;;;;;;;;;;10278666;28;20076;-68
2021/05/28 17:17:18;;;;;;;15.45;7.38;;;;;;;;;;10270677;28;20048;-67
2021/05/28 17:22:15;;;;;;;26.95;22.00;;;;;;;;;;10255598;28;20494;-67
2021/05/28 17:27:11;;;;;;;190.60;63.42;;;;;;;;;;10265270;28;20120;-66
2021/05/28 17:32:07;;;;;;;11.00;5.55;;;;;;;;;;10255649;28;20049;-68
2021/05/28 17:37:04;;;;;;;21.58;8.43;;;;;;;;;;10258940;28;20043;-69
2021/05/28 17:42:00;;;;;;;41.20;23.88;;;;;;;;;;10254966;28;20481;-69
2021/05/28 17:46:56;;;;;;;161.82;91.93;;;;;;;;;;10253831;28;20409;-68
2021/05/28 17:51:56;;;;;;;26.25;13.07;;;;;;;;;;10262895;28;20605;-67
2021/05/28 17:56:52;;;;;;;15.23;5.90;;;;;;;;;;10265446;28;20510;-68
2021/05/28 18:01:48;;;;;;;13.90;5.35;;;;;;;;;;10264520;28;20108;-68
2021/05/28 18:06:45;;;;;;;10.68;4.90;;;;;;;;;;10264776;28;20069;-69
2021/05/28 18:11:41;;;;;;;13.38;6.68;;;;;;;;;;10268898;28;20129;-67
2021/05/28 18:16:37;;;;;;;12.20;5.60;;;;;;;;;;10269165;28;20452;-68
2021/05/28 18:21:34;;;;;;;13.38;5.00;;;;;;;;;;10255087;28;20037;-68
2021/05/28 18:26:30;;;;;;;8.70;4.13;;;;;;;;;;10262198;28;20068;-68
2021/05/28 18:31:28;;;;;;;12.13;5.80;;;;;;;;;;10257840;28;20964;-68
2021/05/28 18:36:26;;;;;;;10.05;4.93;;;;;;;;;;10253340;28;20091;-69
2021/05/28 18:41:22;;;;;;;12.93;4.45;;;;;;;;;;10263034;28;20084;-69
2021/05/28 18:46:19;;;;;;;15.63;6.78;;;;;;;;;;10266368;28;20049;-68
2021/05/28 18:51:16;;;;;;;9.77;4.93;;;;;;;;;;10260135;28;20068;-68
2021/05/28 18:56:14;;;;;;;13.38;5.90;;;;;;;;;;10267995;28;20086;-69
2021/05/28 19:01:11;;;;;;;7.55;4.22;;;;;;;;;;10268834;28;20068;-71
2021/05/28 19:06:07;;;;;;;8.55;4.68;;;;;;;;;;10262629;28;20045;-69
2021/05/28 19:11:06;;;;;;;14.48;5.18;;;;;;;;;;10256146;28;20145;-68
2021/05/28 19:16:02;;;;;;;12.75;5.68;;;;;;;;;;10260393;28;20103;-69
2021/05/28 19:21:02;;;;;;;8.77;5.07;;;;;;;;;;10264526;28;20129;-69
2021/05/28 19:25:58;;;;;;;13.73;6.75;;;;;;;;;;10252146;28;20057;-69
2021/05/28 19:30:55;;;;;;;14.18;6.28;;;;;;;;;;10255538;28;20491;-69
2021/05/28 19:35:52;;;;;;;14.63;7.20;;;;;;;;;;10252087;28;20079;-68
2021/05/28 19:40:50;;;;;;;9.35;5.82;;;;;;;;;;10253112;28;20049;-68
2021/05/28 19:45:46;;;;;;;12.20;8.13;;;;;;;;;;10261662;28;20085;-68
2021/05/28 19:50:43;;;;;;;11.48;7.07;;;;;;;;;;10249376;28;20057;-68
2021/05/28 19:55:42;;;;;;;12.63;7.60;;;;;;;;;;10259319;28;20123;-68
2021/05/28 20:00:40;;;;;;;17.85;8.88;;;;;;;;;;10254078;28;20495;-68
2021/05/28 20:05:37;;;;;;;15.77;8.80;;;;;;;;;;10254726;28;20045;-69
2021/05/28 20:10:56;;;;;;;16.45;9.77;;;;;;;;;;10248546;28;20083;-69
2021/05/28 20:15:52;;;;;;;13.10;8.02;;;;;;;;;;10256706;28;20132;-68
2021/05/28 20:20:49;;;;;;;13.63;8.52;;;;;;;;;;10254847;28;20084;-67
2021/05/28 20:25:45;;;;;;;12.18;9.30;;;;;;;;;;10260035;28;20071;-69
2021/05/28 20:30:41;;;;;;;14.95;8.60;;;;;;;;;;10251281;28;20048;-70
2021/05/28 20:35:38;;;;;;;15.23;9.10;;;;;;;;;;10243355;28;20127;-69
2021/05/28 20:40:34;;;;;;;16.63;11.27;;;;;;;;;;10255005;28;20078;-68
2021/05/28 20:45:31;;;;;;;15.73;8.85;;;;;;;;;;10255977;28;20136;-68
2021/05/28 20:50:28;;;;;;;15.27;8.30;;;;;;;;;;10254421;28;20622;-71
2021/05/28 20:55:28;;;;;;;13.40;8.10;;;;;;;;;;10261762;28;20180;-68
2021/05/28 21:00:26;;;;;;;17.15;9.52;;;;;;;;;;10245644;28;20457;-69
2021/05/28 21:05:22;;;;;;;17.98;9.10;;;;;;;;;;10255778;28;20465;-70
2021/05/28 21:10:19;;;;;;;14.38;8.48;;;;;;;;;;10256551;28;20502;-69
2021/05/28 21:15:22;;;;;;;13.70;8.25;;;;;;;;;;10245313;28;20453;-69
2021/05/28 21:20:19;;;;;;;13.85;9.57;;;;;;;;;;10256825;28;20136;-69
2021/05/28 21:25:16;;;;;;;16.42;9.85;;;;;;;;;;10253946;28;20082;-68
2021/05/28 21:30:12;;;;;;;18.52;10.93;;;;;;;;;;10237776;28;20515;-68
2021/05/28 21:35:09;;;;;;;15.95;10.90;;;;;;;;;;10258509;28;21137;-70
2021/05/28 21:40:08;;;;;;;19.05;10.88;;;;;;;;;;10259675;28;20467;-68
2021/05/28 21:45:05;;;;;;;20.02;12.68;;;;;;;;;;10257676;28;20049;-68
2021/05/28 21:50:03;;;;;;;17.35;12.65;;;;;;;;;;10253585;28;20053;-68
2021/05/28 21:54:59;;;;;;;21.73;14.10;;;;;;;;;;10257753;28;20160;-68
2021/05/28 21:59:56;;;;;;;18.45;13.77;;;;;;;;;;10261296;28;20590;-65
2021/05/28 22:04:52;;;;;;;24.02;12.65;;;;;;;;;;10259572;28;20079;-69
2021/05/28 22:09:48;;;;;;;21.70;13.80;;;;;;;;;;10272522;28;20048;-69
2021/05/28 22:14:45;;;;;;;19.90;13.95;;;;;;;;;;10269482;28;20057;-71
2021/05/28 22:19:41;;;;;;;20.02;10.93;;;;;;;;;;10262215;28;20076;-71
2021/05/28 22:24:37;;;;;;;15.93;9.75;;;;;;;;;;10257291;28;20476;-72
2021/05/28 22:29:52;;;;;;;15.80;8.68;;;;;;;;;;10263260;28;20053;-70
2021/05/28 22:34:49;;;;;;;13.77;8.82;;;;;;;;;;10274394;28;20131;-69
2021/05/28 22:39:45;;;;;;;17.70;10.20;;;;;;;;;;10263925;28;20135;-72
2021/05/28 22:44:42;;;;;;;14.10;8.85;;;;;;;;;;10264779;28;20045;-71
2021/05/28 22:49:41;;;;;;;17.77;10.60;;;;;;;;;;10275698;28;20110;-71
2021/05/28 22:54:37;;;;;;;17.60;10.55;;;;;;;;;;10260131;28;20136;-71
2021/05/28 22:59:34;;;;;;;14.98;12.10;;;;;;;;;;10266286;28;20064;-72
2021/05/28 23:04:30;;;;;;;18.40;13.27;;;;;;;;;;10277384;28;20064;-72
2021/05/28 23:14:26;;;;;;;21.58;14.20;;;;;;;;;;10260903;28;20138;-72
2021/05/28 23:19:22;;;;;;;18.17;14.18;;;;;;;;;;10263887;28;20072;-72
2021/05/28 23:24:18;;;;;;;18.90;13.10;;;;;;;;;;10262446;28;20102;-70
2021/05/28 23:29:15;;;;;;;19.60;15.27;;;;;;;;;;10260268;28;20072;-72
2021/05/28 23:34:11;;;;;;;22.77;14.80;;;;;;;;;;10271177;28;20040;-72
2021/05/28 23:39:08;;;;;;;23.52;15.45;;;;;;;;;;10263783;28;20144;-73
2021/05/28 23:44:14;;;;;;;18.30;13.98;;;;;;;;;;10259534;28;20460;-71
2021/05/28 23:49:10;;;;;;;17.23;13.23;;;;;;;;;;10257678;28;20045;-69
2021/05/28 23:54:07;;;;;;;20.42;14.85;;;;;;;;;;10256808;28;20041;-70
2021/05/28 23:59:04;;;;;;;19.00;13.88;;;;;;;;;;10282756;28;20048;-70
